Time;durP1;ratioP1;P1;durP2;ratioP2;P2;SDS_P1;SDS_P2;PMS_P1;PMS_P2;Temp;Humidity;BMP_temperature;BMP_pressure;BME280_temperature;BME280_humidity;BME280_pressure;Samples;Min_cycle;Max_cycle;Signal;HPM_P1;HPM_P2
2021/05/30 00:00:32;;;;;;;7.35;2.65;;;9.60;99.90;;;;;;5017247;28;20226;-67
2021/05/30 00:02:58;;;;;;;6.83;2.50;;;9.60;99.90;;;;;;4997646;28;20209;-68
2021/05/30 00:05:24;;;;;;;5.40;2.20;;;9.60;99.90;;;;;;4997270;28;20456;-66
2021/05/30 00:07:53;;;;;;;5.40;1.63;;;9.50;99.90;;;;;;5015590;28;20190;-67
2021/05/30 00:10:18;;;;;;;6.25;1.90;;;9.40;99.90;;;;;;5016911;28;20548;-68
2021/05/30 00:12:44;;;;;;;5.80;2.23;;;9.40;99.90;;;;;;5016760;28;20174;-69
2021/05/30 00:15:10;;;;;;;5.97;1.97;;;9.30;99.90;;;;;;5016683;28;20549;-66
2021/05/30 00:17:37;;;;;;;5.90;1.80;;;9.30;99.90;;;;;;5017043;28;20174;-68
2021/05/30 00:20:05;;;;;;;6.00;2.20;;;9.30;99.90;;;;;;5016762;28;20905;-68
2021/05/30 00:22:31;;;;;;;5.22;1.40;;;9.20;99.90;;;;;;5005836;28;20589;-68
2021/05/30 00:24:57;;;;;;;5.60;1.93;;;9.20;99.90;;;;;;4996671;28;20194;-68
2021/05/30 00:27:22;;;;;;;6.83;2.60;;;9.10;99.90;;;;;;4997039;28;20167;-68
2021/05/30 00:29:48;;;;;;;5.57;1.87;;;9.10;99.90;;;;;;4998081;28;20271;-68
2021/05/30 00:32:13;;;;;;;6.30;2.00;;;9.10;99.90;;;;;;5016621;28;20189;-66
2021/05/30 00:34:39;;;;;;;8.97;3.00;;;9.10;99.90;;;;;;5015935;28;20228;-68
2021/05/30 00:37:05;;;;;;;6.90;2.20;;;9.10;99.90;;;;;;5016580;28;20179;-66
2021/05/30 00:39:30;;;;;;;5.93;1.63;;;9.10;99.90;;;;;;5016256;28;20211;-68
2021/05/30 00:41:56;;;;;;;5.23;1.70;;;9.00;99.90;;;;;;5016369;28;20606;-68
2021/05/30 00:44:28;;;;;;;6.37;2.23;;;9.00;99.90;;;;;;5015503;28;20194;-68
2021/05/30 00:46:55;;;;;;;5.50;1.92;;;8.90;99.90;;;;;;5006482;28;20205;-67
2021/05/30 00:49:22;;;;;;;5.13;1.70;;;8.90;99.90;;;;;;5015752;28;20180;-68
2021/05/30 00:51:48;;;;;;;6.85;2.53;;;8.80;99.90;;;;;;4998460;28;20185;-67
2021/05/30 00:54:15;;;;;;;6.57;2.17;;;8.80;99.90;;;;;;5015822;28;20197;-68
2021/05/30 00:56:41;;;;;;;6.22;1.55;;;8.80;99.90;;;;;;5016069;28;20407;-67
2021/05/30 00:59:12;;;;;;;5.88;1.67;;;8.80;99.90;;;;;;4998077;28;20248;-67
2021/05/30 01:01:38;;;;;;;5.45;1.65;;;8.80;99.90;;;;;;4996241;28;20574;-67
2021/05/30 01:04:05;;;;;;;5.20;1.45;;;8.70;99.90;;;;;;4995653;28;20254;-66
2021/05/30 01:06:31;;;;;;;6.38;2.45;;;8.60;99.90;;;;;;4995590;28;20189;-67
2021/05/30 01:08:59;;;;;;;5.10;1.48;;;8.50;99.90;;;;;;4996540;28;20171;-66
2021/05/30 01:11:25;;;;;;;5.70;2.08;;;8.50;99.90;;;;;;4996368;28;20173;-68
2021/05/30 01:13:56;;;;;;;5.60;1.75;;;8.50;99.90;;;;;;4995740;28;20175;-67
2021/05/30 01:16:23;;;;;;;6.18;1.83;;;8.50;99.90;;;;;;4996180;28;20287;-68
2021/05/30 01:18:52;;;;;;;6.95;2.60;;;8.60;99.90;;;;;;4995934;28;20210;-67
2021/05/30 01:21:17;;;;;;;8.60;2.10;;;8.60;99.90;;;;;;4995991;28;20246;-67
2021/05/30 01:23:43;;;;;;;7.33;1.90;;;8.60;99.90;;;;;;4995877;28;20203;-68
2021/05/30 01:26:09;;;;;;;5.57;1.97;;;8.60;99.90;;;;;;4996007;28;20197;-68
2021/05/30 01:28:35;;;;;;;5.85;1.70;;;8.60;99.90;;;;;;4994712;28;20172;-67
2021/05/30 01:31:01;;;;;;;6.17;1.93;;;8.60;99.90;;;;;;4995801;28;20173;-67
2021/05/30 01:33:26;;;;;;;5.90;1.70;;;8.60;99.90;;;;;;4995373;28;20168;-68
2021/05/30 01:35:52;;;;;;;6.40;1.70;;;8.60;99.90;;;;;;5000962;28;20684;-67
2021/05/30 01:38:18;;;;;;;5.60;1.73;;;8.70;99.90;;;;;;5015293;28;20167;-68
2021/05/30 01:40:44;;;;;;;7.00;2.60;;;8.70;99.90;;;;;;5015193;28;20197;-67
2021/05/30 01:43:09;;;;;;;7.33;1.70;;;8.60;99.90;;;;;;5014871;28;20175;-68
2021/05/30 01:45:35;;;;;;;8.57;2.40;;;8.60;99.90;;;;;;5003311;28;20191;-68
2021/05/30 01:48:03;;;;;;;5.78;2.05;;;8.70;99.90;;;;;;5014835;28;20177;-68
2021/05/30 01:50:31;;;;;;;7.30;2.28;;;8.70;99.90;;;;;;5014615;28;20189;-67
2021/05/30 01:53:01;;;;;;;6.80;1.77;;;8.70;99.90;;;;;;5014672;28;20170;-67
2021/05/30 01:55:42;;;;;;;5.20;1.20;;;8.70;99.90;;;;;;5015066;28;20184;-68
2021/05/30 01:58:08;;;;;;;7.07;1.83;;;8.70;99.90;;;;;;5015042;28;20199;-67
2021/05/30 02:00:35;;;;;;;7.20;2.13;;;8.60;99.90;;;;;;4998215;28;20207;-67
2021/05/30 02:03:02;;;;;;;5.85;2.03;;;8.60;99.90;;;;;;4995166;28;20164;-67
2021/05/30 02:05:28;;;;;;;6.15;1.50;;;8.60;99.90;;;;;;4995914;28;20284;-67
2021/05/30 02:07:54;;;;;;;6.10;1.77;;;8.50;99.90;;;;;;4995247;28;20220;-68
2021/05/30 02:10:22;;;;;;;6.27;1.40;;;8.40;99.90;;;;;;4994998;28;20441;-68
2021/05/30 02:12:53;;;;;;;7.25;2.10;;;8.40;99.90;;;;;;4994893;28;20185;-68
2021/05/30 02:15:20;;;;;;;7.40;2.22;;;8.40;99.90;;;;;;4995208;28;20199;-67
2021/05/30 02:17:46;;;;;;;6.07;1.70;;;8.30;99.90;;;;;;4994850;28;20174;-68
2021/05/30 02:20:13;;;;;;;7.70;1.80;;;8.30;99.90;;;;;;4994981;28;20282;-68
2021/05/30 02:22:39;;;;;;;7.13;1.80;;;8.30;99.90;;;;;;4994460;28;20794;-68
2021/05/30 02:25:08;;;;;;;6.00;1.85;;;8.30;99.90;;;;;;4994248;28;20187;-68
2021/05/30 02:27:34;;;;;;;8.85;2.45;;;8.20;99.90;;;;;;4994592;28;20167;-68
2021/05/30 02:29:59;;;;;;;6.33;1.93;;;8.30;99.90;;;;;;4993455;28;20631;-67
2021/05/30 02:32:25;;;;;;;5.80;1.80;;;8.20;99.90;;;;;;4994647;28;20171;-68
2021/05/30 02:34:51;;;;;;;5.73;1.90;;;8.20;99.90;;;;;;5004939;28;20262;-68
2021/05/30 02:37:18;;;;;;;6.67;2.10;;;8.10;99.90;;;;;;4997005;28;20197;-67
2021/05/30 02:39:45;;;;;;;7.15;2.08;;;8.10;99.90;;;;;;4994544;28;20201;-69
2021/05/30 02:42:11;;;;;;;6.05;1.70;;;8.10;99.90;;;;;;4994517;28;20589;-67
2021/05/30 02:44:38;;;;;;;8.10;2.40;;;8.10;99.90;;;;;;4993953;28;20685;-68
2021/05/30 02:47:04;;;;;;;9.70;1.83;;;8.10;99.90;;;;;;4994538;28;20177;-68
2021/05/30 02:49:30;;;;;;;6.20;1.58;;;8.00;99.90;;;;;;4994486;28;20175;-68
2021/05/30 02:51:56;;;;;;;6.90;2.40;;;8.10;99.90;;;;;;4995282;28;20188;-69
2021/05/30 02:54:22;;;;;;;6.07;2.03;;;8.10;99.90;;;;;;4993686;28;20481;-67
2021/05/30 02:56:47;;;;;;;5.87;1.77;;;8.00;99.90;;;;;;4994355;28;20632;-67
2021/05/30 02:59:13;;;;;;;7.00;1.70;;;8.00;99.90;;;;;;4994394;28;20191;-67
2021/05/30 03:01:39;;;;;;;5.80;1.70;;;8.00;99.90;;;;;;4993414;28;20258;-68
2021/05/30 03:04:05;;;;;;;6.70;1.87;;;8.00;99.90;;;;;;4993706;28;20189;-68
2021/05/30 03:06:31;;;;;;;6.32;2.35;;;7.90;99.90;;;;;;4994206;28;20423;-67
2021/05/30 03:08:58;;;;;;;6.33;2.37;;;7.90;99.90;;;;;;4995875;28;20184;-68
2021/05/30 03:11:25;;;;;;;6.50;2.33;;;7.90;99.90;;;;;;5013914;28;20225;-68
2021/05/30 03:13:51;;;;;;;7.50;2.33;;;7.80;99.90;;;;;;5013220;28;20172;-68
2021/05/30 03:16:16;;;;;;;6.15;2.30;;;7.80;99.90;;;;;;5013706;28;20221;-68
2021/05/30 03:18:42;;;;;;;7.57;1.90;;;7.80;99.90;;;;;;5013489;28;20517;-68
2021/05/30 03:21:08;;;;;;;8.67;2.23;;;7.80;99.90;;;;;;5007068;28;20173;-68
2021/05/30 03:23:34;;;;;;;6.93;2.07;;;7.70;99.90;;;;;;4993498;28;20179;-67
2021/05/30 03:26:00;;;;;;;6.37;1.80;;;7.70;99.90;;;;;;4993846;28;20433;-68
2021/05/30 03:28:26;;;;;;;7.33;2.53;;;7.70;99.90;;;;;;4996256;28;20407;-68
2021/05/30 03:30:51;;;;;;;6.03;1.50;;;7.70;99.90;;;;;;5000557;28;20300;-69
2021/05/30 03:33:17;;;;;;;5.80;2.10;;;7.70;99.90;;;;;;5000069;28;20438;-68
2021/05/30 03:35:44;;;;;;;5.90;1.73;;;7.70;99.90;;;;;;5005020;28;20199;-68
2021/05/30 03:38:13;;;;;;;5.85;2.25;;;7.70;99.90;;;;;;5020076;28;20250;-67
2021/05/30 03:40:47;;;;;;;6.05;1.65;;;7.70;99.90;;;;;;5019735;28;20200;-68
2021/05/30 03:43:13;;;;;;;6.10;1.60;;;7.70;99.90;;;;;;5019821;28;20171;-67
2021/05/30 03:45:39;;;;;;;6.55;2.20;;;7.70;99.90;;;;;;5019693;28;20270;-68
2021/05/30 03:48:05;;;;;;;5.20;1.50;;;7.70;99.90;;;;;;5019999;28;20646;-67
2021/05/30 03:50:32;;;;;;;6.57;2.25;;;7.70;99.90;;;;;;5014360;28;20520;-68
2021/05/30 03:52:57;;;;;;;6.90;2.70;;;7.70;99.90;;;;;;4999876;28;20230;-68
2021/05/30 03:55:23;;;;;;;5.57;1.80;;;7.80;99.90;;;;;;5000163;28;20196;-65
2021/05/30 03:57:49;;;;;;;7.33;2.53;;;7.80;99.90;;;;;;5000228;28;20206;-68
2021/05/30 04:00:17;;;;;;;5.13;1.27;;;7.80;99.90;;;;;;5000023;28;20223;-67
2021/05/30 04:02:43;;;;;;;5.50;1.75;;;7.90;99.90;;;;;;5000299;28;20173;-67
2021/05/30 04:05:10;;;;;;;6.60;1.50;;;8.00;99.90;;;;;;5003970;28;20203;-68
2021/05/30 04:07:36;;;;;;;5.88;1.73;;;8.10;99.90;;;;;;5001857;28;20707;-68
2021/05/30 04:10:08;;;;;;;6.57;2.15;;;8.10;99.90;;;;;;5019290;28;20515;-68
2021/05/30 04:12:34;;;;;;;6.88;1.42;;;8.20;99.90;;;;;;5019591;28;20189;-68
2021/05/30 04:15:00;;;;;;;7.17;2.27;;;8.30;99.90;;;;;;5019184;28;20199;-69
2021/05/30 04:17:26;;;;;;;5.90;1.90;;;8.30;99.90;;;;;;5002201;28;20450;-66
2021/05/30 04:19:52;;;;;;;6.32;2.25;;;8.50;99.90;;;;;;4998432;28;20211;-69
2021/05/30 04:22:17;;;;;;;9.00;3.23;;;8.70;99.90;;;;;;5000245;28;20172;-68
2021/05/30 04:24:43;;;;;;;6.60;2.00;;;8.90;99.90;;;;;;4999486;28;20187;-68
2021/05/30 04:27:09;;;;;;;6.53;2.60;;;9.20;99.90;;;;;;5000044;28;20186;-67
2021/05/30 04:29:35;;;;;;;5.65;1.60;;;9.60;99.90;;;;;;5000096;28;20258;-68
2021/05/30 04:32:02;;;;;;;6.40;2.67;;;9.90;99.90;;;;;;5000236;28;20692;-67
2021/05/30 04:34:30;;;;;;;6.97;2.65;;;10.20;99.90;;;;;;4999686;28;20190;-69
2021/05/30 04:36:56;;;;;;;8.82;2.75;;;10.50;99.90;;;;;;4998581;28;20641;-67
2021/05/30 04:39:22;;;;;;;9.17;3.23;;;10.80;99.90;;;;;;4998674;28;20203;-69
2021/05/30 04:41:47;;;;;;;7.17;2.50;;;10.90;99.90;;;;;;4996877;28;20661;-69
2021/05/30 04:44:13;;;;;;;6.43;1.90;;;11.10;99.90;;;;;;5009755;28;20198;-69
2021/05/30 04:46:39;;;;;;;7.17;2.60;;;11.20;99.90;;;;;;5015068;28;20202;-67
2021/05/30 04:49:05;;;;;;;7.67;2.27;;;11.30;99.90;;;;;;5016130;28;20468;-68
2021/05/30 04:51:30;;;;;;;7.40;2.70;;;11.30;99.90;;;;;;5015985;28;20671;-68
2021/05/30 04:53:58;;;;;;;7.43;2.63;;;11.30;99.90;;;;;;5015708;28;21591;-68
2021/05/30 04:56:24;;;;;;;8.05;2.03;;;11.30;99.90;;;;;;5016109;28;20660;-68
2021/05/30 04:58:50;;;;;;;7.57;3.53;;;11.40;99.90;;;;;;5003199;28;20175;-67
2021/05/30 05:01:16;;;;;;;6.70;2.37;;;11.50;99.90;;;;;;4995290;28;20974;-68
2021/05/30 05:03:41;;;;;;;7.50;2.57;;;11.70;99.90;;;;;;4994583;28;20176;-68
2021/05/30 05:06:07;;;;;;;6.30;2.10;;;11.80;99.90;;;;;;4999023;28;20179;-69
2021/05/30 05:08:33;;;;;;;7.57;2.70;;;11.80;99.90;;;;;;5015850;28;20560;-69
2021/05/30 05:10:59;;;;;;;6.10;2.37;;;11.90;99.90;;;;;;5015842;28;20406;-69
2021/05/30 05:13:24;;;;;;;6.20;2.27;;;11.90;99.90;;;;;;5015463;28;20178;-68
2021/05/30 05:15:52;;;;;;;6.20;2.33;;;11.90;99.90;;;;;;5015798;28;20191;-67
2021/05/30 05:18:20;;;;;;;9.55;2.80;;;11.90;99.90;;;;;;5015493;28;20261;-67
2021/05/30 05:20:46;;;;;;;6.78;2.30;;;11.90;99.90;;;;;;5013279;28;20214;-68
2021/05/30 05:23:13;;;;;;;9.10;2.53;;;11.90;99.90;;;;;;4995668;28;20234;-68
2021/05/30 05:25:39;;;;;;;11.13;2.35;;;11.90;99.90;;;;;;4995719;28;20195;-67
2021/05/30 05:28:06;;;;;;;6.80;2.60;;;11.90;99.90;;;;;;5008053;28;20695;-69
2021/05/30 05:30:32;;;;;;;5.85;2.10;;;11.90;99.90;;;;;;5015450;28;20424;-67
2021/05/30 05:32:59;;;;;;;6.10;2.10;;;12.00;99.90;;;;;;5015201;28;20179;-68
2021/05/30 05:35:26;;;;;;;5.60;1.75;;;12.10;99.90;;;;;;5015307;28;20191;-68
2021/05/30 05:37:56;;;;;;;6.28;2.40;;;12.30;99.90;;;;;;5015307;28;20206;-68
2021/05/30 05:40:23;;;;;;;5.30;1.83;;;12.70;99.90;;;;;;5013195;28;20645;-68
2021/05/30 05:42:49;;;;;;;6.57;2.30;;;13.00;99.90;;;;;;5014904;28;20801;-67
2021/05/30 05:45:16;;;;;;;5.50;2.10;;;13.10;99.90;;;;;;5014705;28;20196;-68
2021/05/30 05:47:43;;;;;;;6.87;2.70;;;13.30;99.90;;;;;;5015105;28;20417;-69
2021/05/30 05:50:16;;;;;;;5.78;2.45;;;13.30;99.90;;;;;;5015156;28;20424;-69
2021/05/30 05:52:44;;;;;;;6.90;2.10;;;13.40;99.90;;;;;;5014735;28;20191;-69
2021/05/30 05:55:10;;;;;;;7.70;2.63;;;13.60;99.90;;;;;;5014957;28;20936;-68
2021/05/30 05:57:37;;;;;;;6.87;2.73;;;13.80;99.90;;;;;;4997313;28;20478;-68
2021/05/30 06:00:09;;;;;;;6.47;1.93;;;14.00;99.90;;;;;;5013398;28;20531;-67
2021/05/30 06:02:35;;;;;;;7.80;2.23;;;14.10;99.90;;;;;;4995160;28;20757;-68
2021/05/30 06:05:01;;;;;;;7.43;2.37;;;14.20;99.90;;;;;;4994649;28;20460;-68
2021/05/30 06:07:27;;;;;;;11.07;2.50;;;14.20;99.90;;;;;;4995212;28;20401;-68
2021/05/30 06:09:53;;;;;;;6.90;2.27;;;14.10;99.90;;;;;;4994935;28;20771;-68
2021/05/30 06:12:18;;;;;;;5.57;1.87;;;14.10;99.90;;;;;;4995192;28;20528;-69
2021/05/30 06:14:45;;;;;;;7.13;2.57;;;14.00;99.90;;;;;;4994888;28;20251;-67
2021/05/30 06:17:12;;;;;;;5.40;1.90;;;13.90;99.90;;;;;;5014731;28;20177;-65
2021/05/30 06:19:38;;;;;;;7.37;2.23;;;14.00;99.90;;;;;;5014722;28;21048;-68
2021/05/30 06:22:05;;;;;;;7.33;2.00;;;14.10;99.90;;;;;;5014377;28;20412;-65
2021/05/30 06:24:34;;;;;;;7.13;2.00;;;14.20;99.90;;;;;;5013996;28;20421;-67
2021/05/30 06:27:00;;;;;;;6.77;2.20;;;14.20;99.90;;;;;;5014783;28;20401;-66
2021/05/30 06:29:26;;;;;;;6.20;2.40;;;14.20;99.90;;;;;;5013972;28;20760;-67
2021/05/30 06:31:54;;;;;;;5.00;1.80;;;14.20;99.90;;;;;;4994856;28;20423;-67
2021/05/30 06:34:19;;;;;;;6.50;2.83;;;14.40;99.90;;;;;;4994181;28;20450;-67
2021/05/30 06:36:47;;;;;;;6.73;2.97;;;14.50;99.90;;;;;;4994748;28;20417;-67
2021/05/30 06:39:13;;;;;;;6.30;2.13;;;14.60;99.70;;;;;;4994593;28;20232;-68
2021/05/30 06:41:38;;;;;;;9.37;2.80;;;14.80;99.10;;;;;;5006138;28;20420;-68
2021/05/30 06:44:05;;;;;;;6.23;2.50;;;14.90;98.90;;;;;;5013821;28;20192;-67
2021/05/30 06:46:32;;;;;;;5.67;2.10;;;14.90;98.90;;;;;;5014223;28;20193;-67
2021/05/30 06:48:58;;;;;;;5.77;2.10;;;15.00;99.10;;;;;;5014143;28;20409;-67
2021/05/30 06:51:29;;;;;;;5.97;2.30;;;15.10;98.60;;;;;;5014136;28;20412;-68
2021/05/30 06:53:55;;;;;;;6.93;2.77;;;15.20;97.70;;;;;;5013423;28;20185;-67
2021/05/30 06:56:20;;;;;;;6.23;2.17;;;15.20;97.60;;;;;;5002190;28;20428;-66
2021/05/30 06:58:46;;;;;;;6.07;2.33;;;15.30;98.20;;;;;;4994301;28;20497;-67
2021/05/30 07:01:12;;;;;;;5.83;1.70;;;15.50;97.50;;;;;;4996031;28;20170;-66
2021/05/30 07:03:38;;;;;;;6.43;1.63;;;15.60;96.90;;;;;;5011431;28;20253;-67
2021/05/30 07:06:05;;;;;;;5.37;2.00;;;15.70;97.00;;;;;;5013687;28;20844;-67
2021/05/30 07:08:31;;;;;;;5.50;2.17;;;15.80;96.60;;;;;;5013916;28;20404;-69
2021/05/30 07:10:57;;;;;;;6.43;1.73;;;15.90;96.90;;;;;;5013812;28;20420;-69
2021/05/30 07:13:23;;;;;;;5.77;2.17;;;16.10;96.80;;;;;;5012129;28;20421;-68
2021/05/30 07:15:51;;;;;;;5.40;2.10;;;16.30;96.90;;;;;;5013300;28;20213;-70
2021/05/30 07:18:21;;;;;;;5.10;1.90;;;16.60;95.40;;;;;;5013733;28;20405;-67
2021/05/30 07:20:47;;;;;;;8.90;1.93;;;17.00;95.40;;;;;;5013545;28;20493;-69
2021/05/30 07:23:15;;;;;;;5.53;1.50;;;17.20;95.20;;;;;;5013276;28;20406;-65
2021/05/30 07:25:40;;;;;;;5.83;2.30;;;17.60;94.30;;;;;;5013460;28;20424;-68
2021/05/30 07:28:07;;;;;;;4.37;1.53;;;18.10;93.00;;;;;;4996164;28;20416;-68
2021/05/30 07:30:33;;;;;;;6.40;2.17;;;18.70;91.20;;;;;;5012871;28;20422;-68
2021/05/30 07:33:01;;;;;;;4.43;1.47;;;19.40;90.20;;;;;;4993562;28;20798;-68
2021/05/30 07:35:26;;;;;;;4.33;1.40;;;20.30;87.10;;;;;;4993567;28;20452;-66
2021/05/30 07:37:52;;;;;;;5.00;1.73;;;21.40;83.90;;;;;;4993854;28;20490;-69
2021/05/30 07:40:18;;;;;;;4.17;1.83;;;22.50;80.80;;;;;;4994015;28;20244;-68
2021/05/30 07:42:46;;;;;;;5.10;2.10;;;23.40;73.90;;;;;;4993777;28;20179;-67
2021/05/30 07:45:13;;;;;;;4.20;1.73;;;24.40;70.60;;;;;;4993728;28;20195;-68
2021/05/30 07:47:39;;;;;;;5.10;2.33;;;25.10;67.70;;;;;;5013243;28;20496;-67
2021/05/30 07:50:06;;;;;;;4.47;1.90;;;25.60;65.60;;;;;;5013303;28;20448;-71
2021/05/30 07:52:32;;;;;;;4.77;1.80;;;26.20;61.00;;;;;;5013318;28;20402;-67
2021/05/30 07:54:58;;;;;;;4.53;2.43;;;26.50;58.30;;;;;;5012795;28;20460;-68
2021/05/30 07:57:23;;;;;;;5.30;2.17;;;26.70;58.10;;;;;;5013306;28;20171;-68
2021/05/30 07:59:49;;;;;;;3.60;1.40;;;27.10;57.60;;;;;;5013308;28;20202;-68
2021/05/30 08:02:15;;;;;;;4.00;2.17;;;27.00;55.50;;;;;;5012193;28;20261;-68
2021/05/30 08:04:40;;;;;;;3.70;1.70;;;27.50;55.80;;;;;;5012599;28;20202;-66
2021/05/30 08:07:06;;;;;;;3.70;1.73;;;27.80;52.70;;;;;;5013532;28;20600;-68
2021/05/30 08:09:32;;;;;;;3.53;1.87;;;27.40;51.70;;;;;;5013292;28;20187;-68
2021/05/30 08:11:58;;;;;;;4.43;1.90;;;27.10;52.60;;;;;;5013153;28;20660;-70
2021/05/30 08:14:24;;;;;;;3.33;1.63;;;26.80;52.90;;;;;;5014453;28;20585;-69
2021/05/30 08:16:51;;;;;;;4.40;2.00;;;26.80;52.30;;;;;;4999671;28;20426;-69
2021/05/30 08:19:16;;;;;;;3.40;1.73;;;26.50;52.90;;;;;;4997280;28;20513;-69
2021/05/30 08:21:42;;;;;;;3.63;1.77;;;26.80;52.50;;;;;;4997302;28;20778;-69
2021/05/30 08:24:08;;;;;;;3.47;1.60;;;27.00;52.90;;;;;;4995864;28;20191;-68
2021/05/30 08:26:34;;;;;;;3.50;1.67;;;27.20;51.30;;;;;;4997519;28;20167;-70
2021/05/30 08:29:00;;;;;;;5.30;1.80;;;27.20;50.20;;;;;;4997199;28;20449;-68
2021/05/30 08:31:26;;;;;;;3.63;1.60;;;27.30;49.80;;;;;;5012499;28;20198;-69
2021/05/30 08:33:51;;;;;;;3.63;1.60;;;27.60;49.70;;;;;;5015472;28;20186;-69
2021/05/30 08:36:17;;;;;;;3.70;1.70;;;27.90;49.40;;;;;;5016616;28;20163;-69
2021/05/30 08:38:43;;;;;;;3.83;1.97;;;28.20;48.00;;;;;;5016608;28;20178;-69
2021/05/30 08:41:10;;;;;;;3.30;1.50;;;28.40;47.70;;;;;;5016484;28;20182;-70
2021/05/30 08:43:36;;;;;;;3.20;1.50;;;27.90;47.50;;;;;;5015978;28;20405;-68
2021/05/30 08:46:01;;;;;;;3.30;1.47;;;27.60;46.80;;;;;;5001566;28;20941;-69
2021/05/30 08:48:27;;;;;;;4.37;2.00;;;27.70;47.50;;;;;;4996821;28;20176;-67
2021/05/30 08:51:03;;;;;;;3.40;1.37;;;27.90;46.70;;;;;;4996581;28;20186;-68
2021/05/30 08:53:30;;;;;;;6.27;2.30;;;27.90;46.50;;;;;;4996444;28;20171;-68
2021/05/30 08:55:56;;;;;;;3.27;1.67;;;28.30;47.20;;;;;;4995041;28;20427;-68
2021/05/30 08:58:22;;;;;;;2.97;1.30;;;28.60;45.60;;;;;;4996606;28;20384;-67
2021/05/30 09:01:07;;;;;;;4.53;1.73;;;28.20;45.40;;;;;;5010169;28;20553;-69
2021/05/30 09:03:32;;;;;;;3.40;1.70;;;27.00;46.50;;;;;;5015344;28;20179;-69
2021/05/30 09:06:14;;;;;;;4.27;1.70;;;26.30;47.30;;;;;;5015852;28;20441;-70
2021/05/30 09:08:42;;;;;;;3.70;1.90;;;25.30;49.00;;;;;;5015931;28;20194;-69
2021/05/30 09:11:08;;;;;;;3.37;1.17;;;25.40;49.80;;;;;;5015911;28;20421;-69
2021/05/30 09:13:39;;;;;;;3.87;1.70;;;25.70;48.40;;;;;;5015458;28;20406;-68
2021/05/30 09:18:34;;;;;;;3.53;1.80;;;25.10;48.00;;;;;;4996109;28;20407;-67
2021/05/30 09:21:08;;;;;;;3.40;1.50;;;24.20;48.40;;;;;;4996103;28;20248;-67
2021/05/30 09:23:40;;;;;;;3.63;1.63;;;23.60;50.20;;;;;;4995812;28;20409;-68
2021/05/30 09:26:13;;;;;;;4.10;1.90;;;23.60;51.80;;;;;;4995174;28;20454;-68
2021/05/30 09:29:00;;;;;;;4.07;2.00;;;23.10;52.30;;;;;;4996528;28;20735;-67
2021/05/30 09:31:25;;;;;;;3.37;1.63;;;22.30;53.50;;;;;;5015650;28;20517;-67
2021/05/30 09:33:51;;;;;;;3.50;1.57;;;21.50;52.10;;;;;;5015044;28;20484;-68
2021/05/30 09:36:20;;;;;;;3.23;1.40;;;21.50;52.80;;;;;;5015471;28;20717;-68
2021/05/30 09:38:46;;;;;;;3.97;1.43;;;22.30;53.40;;;;;;4994133;28;20184;-68
2021/05/30 09:41:16;;;;;;;3.00;1.30;;;23.00;52.70;;;;;;4995977;28;20470;-68
2021/05/30 09:43:55;;;;;;;4.20;1.67;;;22.90;53.20;;;;;;4993906;28;20172;-68
2021/05/30 09:46:41;;;;;;;4.67;1.67;;;23.40;52.90;;;;;;5004846;28;20454;-68
2021/05/30 09:49:07;;;;;;;4.20;2.20;;;24.10;51.30;;;;;;4997249;28;20425;-69
2021/05/30 09:51:43;;;;;;;3.50;1.37;;;25.30;50.40;;;;;;5010195;28;20782;-66
2021/05/30 09:54:14;;;;;;;2.90;1.30;;;25.80;49.90;;;;;;4995129;28;20203;-68
2021/05/30 09:56:51;;;;;;;3.73;1.70;;;25.60;47.90;;;;;;4994220;28;20393;-69
2021/05/30 09:59:19;;;;;;;4.40;1.83;;;25.20;48.30;;;;;;4995190;28;20541;-69
2021/05/30 10:01:50;;;;;;;3.10;1.30;;;24.60;49.40;;;;;;4995300;28;20419;-66
2021/05/30 10:04:16;;;;;;;3.47;1.63;;;23.80;49.40;;;;;;4995571;28;20518;-68
2021/05/30 10:06:42;;;;;;;3.37;1.40;;;22.70;50.60;;;;;;4995492;28;20431;-69
2021/05/30 10:09:09;;;;;;;3.50;1.43;;;21.90;51.40;;;;;;4995360;28;20418;-67
2021/05/30 10:11:36;;;;;;;3.63;1.40;;;21.10;53.20;;;;;;4995149;28;20183;-68
2021/05/30 10:14:03;;;;;;;3.70;1.33;;;20.70;54.70;;;;;;4994676;28;20821;-68
2021/05/30 10:16:30;;;;;;;3.10;1.13;;;20.40;55.20;;;;;;5009286;28;20456;-66
2021/05/30 10:19:02;;;;;;;3.33;1.00;;;21.00;54.50;;;;;;5014334;28;20482;-68
2021/05/30 10:21:28;;;;;;;3.10;0.90;;;22.10;52.50;;;;;;5014683;28;20406;-67
2021/05/30 10:23:54;;;;;;;5.57;1.80;;;22.80;52.50;;;;;;5014016;28;20757;-67
2021/05/30 10:26:22;;;;;;;3.53;1.50;;;23.50;52.90;;;;;;5014649;28;20400;-69
2021/05/30 10:29:12;;;;;;;4.03;1.80;;;24.40;51.50;;;;;;5013145;28;20415;-67
2021/05/30 10:31:39;;;;;;;3.60;1.70;;;25.10;50.00;;;;;;5013815;28;20408;-68
2021/05/30 10:34:17;;;;;;;3.80;1.83;;;25.30;48.70;;;;;;5013907;28;20438;-68
2021/05/30 10:36:55;;;;;;;3.80;1.53;;;25.50;48.30;;;;;;5014348;28;20413;-68
2021/05/30 10:39:33;;;;;;;3.80;1.80;;;25.70;48.00;;;;;;5014163;28;20907;-68
2021/05/30 10:42:23;;;;;;;3.23;1.53;;;26.30;48.10;;;;;;4999431;28;20414;-69
2021/05/30 10:45:04;;;;;;;3.70;1.93;;;27.00;47.00;;;;;;4994024;28;20525;-68
2021/05/30 10:47:42;;;;;;;3.13;1.20;;;27.50;46.60;;;;;;4994289;28;20958;-69
2021/05/30 10:50:12;;;;;;;3.40;1.60;;;27.40;44.70;;;;;;4994435;28;20422;-68
2021/05/30 10:52:40;;;;;;;3.17;1.30;;;27.30;43.90;;;;;;4994441;28;20879;-67
2021/05/30 10:55:17;;;;;;;2.97;1.10;;;27.10;44.10;;;;;;4992665;28;20470;-68
2021/05/30 10:57:47;;;;;;;2.97;1.10;;;27.00;44.20;;;;;;4994563;28;20805;-68
2021/05/30 11:00:19;;;;;;;3.37;1.80;;;26.80;44.70;;;;;;4994396;28;20493;-68
2021/05/30 11:03:06;;;;;;;4.73;1.73;;;26.80;45.30;;;;;;4994134;28;20430;-68
2021/05/30 11:05:49;;;;;;;3.40;1.70;;;26.40;45.30;;;;;;4993957;28;20445;-68
2021/05/30 11:08:30;;;;;;;3.70;1.57;;;25.70;45.60;;;;;;4994396;28;20755;-68
2021/05/30 11:11:17;;;;;;;3.37;1.30;;;25.20;45.80;;;;;;4994162;28;20834;-68
2021/05/30 11:14:10;;;;;;;3.53;1.70;;;24.20;47.10;;;;;;5011748;28;20928;-66
2021/05/30 11:16:45;;;;;;;4.33;1.77;;;23.40;47.50;;;;;;5013735;28;20832;-67
2021/05/30 11:19:14;;;;;;;3.50;1.13;;;22.80;47.20;;;;;;5013777;28;20537;-67
2021/05/30 11:21:46;;;;;;;3.40;1.30;;;22.20;47.30;;;;;;5013725;28;20420;-67
2021/05/30 11:24:14;;;;;;;3.97;1.60;;;21.50;48.80;;;;;;4995494;28;20788;-67
2021/05/30 11:26:58;;;;;;;3.50;1.70;;;21.20;50.00;;;;;;5012622;28;20423;-67
2021/05/30 11:29:24;;;;;;;3.53;1.60;;;21.00;50.70;;;;;;4995614;28;20438;-67
2021/05/30 11:31:51;;;;;;;3.87;1.30;;;21.00;51.30;;;;;;5012810;28;20514;-67
2021/05/30 11:34:18;;;;;;;7.83;1.50;;;21.10;50.60;;;;;;5013078;28;20425;-67
2021/05/30 11:36:44;;;;;;;3.23;1.20;;;21.10;50.40;;;;;;5013687;28;20398;-67
2021/05/30 11:39:17;;;;;;;3.90;1.50;;;20.80;50.60;;;;;;5013392;28;20466;-69
2021/05/30 11:41:55;;;;;;;4.03;1.70;;;20.50;50.60;;;;;;5013332;28;20432;-68
2021/05/30 11:44:22;;;;;;;3.83;1.60;;;20.10;51.30;;;;;;5013174;28;20428;-68
2021/05/30 11:46:57;;;;;;;3.83;1.57;;;19.80;51.50;;;;;;5013485;28;20406;-68
2021/05/30 11:49:28;;;;;;;4.00;1.80;;;19.80;50.80;;;;;;5015077;28;20409;-68
2021/05/30 11:51:58;;;;;;;3.27;1.03;;;19.80;51.90;;;;;;5017328;28;20396;-67
2021/05/30 11:54:26;;;;;;;3.63;1.40;;;19.80;51.30;;;;;;5017272;28;20412;-68
2021/05/30 11:56:55;;;;;;;3.30;1.30;;;20.00;50.20;;;;;;5007932;28;20454;-67
2021/05/30 11:59:39;;;;;;;3.50;1.60;;;20.10;50.00;;;;;;4996392;28;20447;-68
2021/05/30 12:02:05;;;;;;;4.30;1.67;;;20.20;51.20;;;;;;4997488;28;20805;-67
2021/05/30 12:04:39;;;;;;;3.17;1.40;;;20.10;50.90;;;;;;4996835;28;20822;-68
2021/05/30 12:07:10;;;;;;;4.30;1.40;;;20.10;51.40;;;;;;4997427;28;20413;-66
2021/05/30 12:09:47;;;;;;;4.40;1.47;;;20.10;52.10;;;;;;4996254;28;20492;-66
2021/05/30 12:12:33;;;;;;;4.17;1.77;;;20.20;50.70;;;;;;4998112;28;20448;-67
2021/05/30 12:15:07;;;;;;;3.60;1.43;;;20.00;51.50;;;;;;4997409;28;20960;-67
2021/05/30 12:17:34;;;;;;;3.50;1.23;;;20.00;50.30;;;;;;4997316;28;20399;-66
2021/05/30 12:20:00;;;;;;;3.40;1.43;;;19.90;50.40;;;;;;4997133;28;20462;-65
2021/05/30 12:22:29;;;;;;;3.30;1.30;;;19.90;50.80;;;;;;4997023;28;20409;-66
2021/05/30 12:24:56;;;;;;;4.43;1.80;;;19.90;50.10;;;;;;4996700;28;20430;-66
2021/05/30 12:27:23;;;;;;;3.67;1.50;;;20.00;50.00;;;;;;5009530;28;20421;-67
2021/05/30 12:29:52;;;;;;;3.20;1.20;;;20.00;48.00;;;;;;5016800;28;20479;-67
2021/05/30 12:32:19;;;;;;;3.13;1.33;;;20.00;48.30;;;;;;5016576;28;20466;-66
2021/05/30 12:34:46;;;;;;;3.13;1.20;;;20.00;49.50;;;;;;5015993;28;20482;-67
2021/05/30 12:37:12;;;;;;;4.57;1.63;;;20.00;49.70;;;;;;5016320;28;20611;-66
2021/05/30 12:39:38;;;;;;;3.73;1.63;;;20.10;51.00;;;;;;5016507;28;20539;-67
2021/05/30 12:42:11;;;;;;;3.10;1.10;;;20.20;49.30;;;;;;5015687;28;20513;-66
2021/05/30 12:44:47;;;;;;;3.40;1.23;;;20.10;49.30;;;;;;5015676;28;20448;-69
2021/05/30 12:47:18;;;;;;;3.50;1.47;;;20.30;50.80;;;;;;5016601;28;20411;-67
2021/05/30 12:50:01;;;;;;;3.83;1.40;;;20.40;51.90;;;;;;5016641;28;20401;-66
2021/05/30 12:52:40;;;;;;;3.57;1.37;;;20.40;52.40;;;;;;5016536;28;20762;-67
2021/05/30 12:55:07;;;;;;;3.20;1.17;;;20.30;53.70;;;;;;5015990;28;20429;-67
2021/05/30 12:57:36;;;;;;;3.67;1.40;;;20.50;53.40;;;;;;4998106;28;20429;-68